sensor_id;sensor_type;location;lat;lon;timestamp;P1;durP1;ratioP1;P2;durP2;ratioP2
27489;SDS011;14925;51.026;13.752;2023-03-24T00:01:20;2.72;;;2.00;;
27489;SDS011;14925;51.026;13.752;2023-03-24T00:03:45;3.92;;;1.92;;
27489;SDS011;14925;51.026;13.752;2023-03-24T00:06:12;4.10;;;2.15;;
27489;SDS011;14925;51.026;13.752;2023-03-24T00:08:41;2.97;;;1.98;;
27489;SDS011;14925;51.026;13.752;2023-03-24T00:11:08;3.80;;;2.25;;
27489;SDS011;14925;51.026;13.752;2023-03-24T00:13:35;4.10;;;2.30;;
27489;SDS011;14925;51.026;13.752;2023-03-24T00:16:03;4.03;;;2.20;;
27489;SDS011;14925;51.026;13.752;2023-03-24T00:18:46;3.97;;;2.30;;
27489;SDS011;14925;51.026;13.752;2023-03-24T00:21:19;4.67;;;2.17;;
27489;SDS011;14925;51.026;13.752;2023-03-24T00:23:48;5.40;;;2.10;;
27489;SDS011;14925;51.026;13.752;2023-03-24T00:26:25;4.40;;;2.35;;
27489;SDS011;14925;51.026;13.752;2023-03-24T00:29:05;3.15;;;2.30;;
27489;SDS011;14925;51.026;13.752;2023-03-24T00:31:37;3.45;;;2.20;;
27489;SDS011;14925;51.026;13.752;2023-03-24T00:34:09;3.97;;;2.47;;
27489;SDS011;14925;51.026;13.752;2023-03-24T00:36:35;3.47;;;2.22;;
27489;SDS011;14925;51.026;13.752;2023-03-24T00:39:01;3.00;;;2.22;;
27489;SDS011;14925;51.026;13.752;2023-03-24T00:41:32;3.28;;;2.28;;
27489;SDS011;14925;51.026;13.752;2023-03-24T00:43:59;3.90;;;2.20;;
27489;SDS011;14925;51.026;13.752;2023-03-24T00:46:29;4.03;;;1.88;;
27489;SDS011;14925;51.026;13.752;2023-03-24T00:48:57;2.95;;;2.40;;
27489;SDS011;14925;51.026;13.752;2023-03-24T00:51:38;5.68;;;2.15;;
27489;SDS011;14925;51.026;13.752;2023-03-24T00:54:05;4.53;;;2.10;;
27489;SDS011;14925;51.026;13.752;2023-03-24T00:56:33;5.25;;;2.35;;
27489;SDS011;14925;51.026;13.752;2023-03-24T00:59:01;4.32;;;2.00;;
27489;SDS011;14925;51.026;13.752;2023-03-24T01:01:28;6.15;;;2.40;;
27489;SDS011;14925;51.026;13.752;2023-03-24T01:03:57;4.97;;;2.60;;
27489;SDS011;14925;51.026;13.752;2023-03-24T01:06:24;3.20;;;2.35;;
27489;SDS011;14925;51.026;13.752;2023-03-24T01:09:02;3.42;;;2.40;;
27489;SDS011;14925;51.026;13.752;2023-03-24T01:11:36;7.05;;;2.47;;
27489;SDS011;14925;51.026;13.752;2023-03-24T01:14:07;6.55;;;2.80;;
27489;SDS011;14925;51.026;13.752;2023-03-24T01:16:36;5.43;;;2.80;;
27489;SDS011;14925;51.026;13.752;2023-03-24T01:19:04;7.22;;;2.63;;
27489;SDS011;14925;51.026;13.752;2023-03-24T01:21:31;5.97;;;3.10;;
27489;SDS011;14925;51.026;13.752;2023-03-24T01:24:06;5.63;;;2.60;;
27489;SDS011;14925;51.026;13.752;2023-03-24T01:26:32;4.45;;;2.90;;
27489;SDS011;14925;51.026;13.752;2023-03-24T01:28:58;5.47;;;2.50;;
27489;SDS011;14925;51.026;13.752;2023-03-24T01:31:23;5.32;;;2.70;;
27489;SDS011;14925;51.026;13.752;2023-03-24T01:33:49;3.63;;;2.50;;
27489;SDS011;14925;51.026;13.752;2023-03-24T01:36:28;7.80;;;3.00;;
27489;SDS011;14925;51.026;13.752;2023-03-24T01:38:54;7.90;;;3.00;;
27489;SDS011;14925;51.026;13.752;2023-03-24T01:41:36;3.15;;;2.40;;
27489;SDS011;14925;51.026;13.752;2023-03-24T01:47:10;5.60;;;2.97;;
27489;SDS011;14925;51.026;13.752;2023-03-24T01:49:37;6.38;;;3.13;;
27489;SDS011;14925;51.026;13.752;2023-03-24T01:52:08;6.75;;;3.50;;
27489;SDS011;14925;51.026;13.752;2023-03-24T01:54:39;3.85;;;2.45;;
27489;SDS011;14925;51.026;13.752;2023-03-24T01:57:11;5.32;;;3.40;;
27489;SDS011;14925;51.026;13.752;2023-03-24T01:59:58;5.82;;;3.22;;
27489;SDS011;14925;51.026;13.752;2023-03-24T02:02:25;7.40;;;3.67;;
27489;SDS011;14925;51.026;13.752;2023-03-24T02:05:00;5.80;;;3.25;;
27489;SDS011;14925;51.026;13.752;2023-03-24T02:10:25;4.15;;;3.10;;
27489;SDS011;14925;51.026;13.752;2023-03-24T02:12:55;7.50;;;3.55;;
27489;SDS011;14925;51.026;13.752;2023-03-24T02:15:23;5.75;;;3.33;;
27489;SDS011;14925;51.026;13.752;2023-03-24T02:18:02;4.90;;;3.33;;
27489;SDS011;14925;51.026;13.752;2023-03-24T02:20:45;6.70;;;3.80;;
27489;SDS011;14925;51.026;13.752;2023-03-24T02:26:11;5.35;;;3.15;;
27489;SDS011;14925;51.026;13.752;2023-03-24T02:35:08;8.02;;;3.47;;
27489;SDS011;14925;51.026;13.752;2023-03-24T02:38:05;5.88;;;3.30;;
27489;SDS011;14925;51.026;13.752;2023-03-24T02:40:44;8.00;;;3.92;;
27489;SDS011;14925;51.026;13.752;2023-03-24T02:43:18;6.85;;;3.40;;
27489;SDS011;14925;51.026;13.752;2023-03-24T02:48:43;7.30;;;3.38;;
27489;SDS011;14925;51.026;13.752;2023-03-24T02:51:34;6.57;;;3.78;;
27489;SDS011;14925;51.026;13.752;2023-03-24T02:54:15;7.15;;;3.47;;
27489;SDS011;14925;51.026;13.752;2023-03-24T02:59:53;5.00;;;3.20;;
27489;SDS011;14925;51.026;13.752;2023-03-24T03:02:39;5.85;;;3.63;;
27489;SDS011;14925;51.026;13.752;2023-03-24T03:05:12;7.20;;;3.50;;
27489;SDS011;14925;51.026;13.752;2023-03-24T03:07:46;5.60;;;3.42;;
27489;SDS011;14925;51.026;13.752;2023-03-24T03:10:17;6.07;;;3.63;;
27489;SDS011;14925;51.026;13.752;2023-03-24T03:12:59;8.32;;;3.67;;
27489;SDS011;14925;51.026;13.752;2023-03-24T03:15:31;6.80;;;3.40;;
27489;SDS011;14925;51.026;13.752;2023-03-24T03:20:48;4.72;;;3.05;;
27489;SDS011;14925;51.026;13.752;2023-03-24T03:23:33;4.65;;;3.50;;
27489;SDS011;14925;51.026;13.752;2023-03-24T03:26:13;4.68;;;3.20;;
27489;SDS011;14925;51.026;13.752;2023-03-24T03:28:57;6.75;;;3.42;;
27489;SDS011;14925;51.026;13.752;2023-03-24T03:32:10;5.28;;;3.90;;
27489;SDS011;14925;51.026;13.752;2023-03-24T03:40:27;7.63;;;3.90;;
27489;SDS011;14925;51.026;13.752;2023-03-24T03:43:14;8.02;;;4.40;;
27489;SDS011;14925;51.026;13.752;2023-03-24T03:45:40;6.95;;;3.80;;
27489;SDS011;14925;51.026;13.752;2023-03-24T03:48:08;6.90;;;4.28;;
27489;SDS011;14925;51.026;13.752;2023-03-24T03:50:39;6.55;;;3.80;;
27489;SDS011;14925;51.026;13.752;2023-03-24T03:53:08;8.38;;;4.20;;
27489;SDS011;14925;51.026;13.752;2023-03-24T03:55:34;6.22;;;3.95;;
27489;SDS011;14925;51.026;13.752;2023-03-24T03:58:02;6.43;;;3.80;;
27489;SDS011;14925;51.026;13.752;2023-03-24T04:00:28;5.40;;;3.60;;
27489;SDS011;14925;51.026;13.752;2023-03-24T04:05:32;4.93;;;3.42;;
27489;SDS011;14925;51.026;13.752;2023-03-24T04:11:07;4.20;;;3.30;;
27489;SDS011;14925;51.026;13.752;2023-03-24T04:18:53;5.10;;;2.65;;
27489;SDS011;14925;51.026;13.752;2023-03-24T04:24:05;4.72;;;3.80;;
27489;SDS011;14925;51.026;13.752;2023-03-24T04:26:40;6.20;;;3.70;;
27489;SDS011;14925;51.026;13.752;2023-03-24T04:31:51;4.93;;;3.22;;
27489;SDS011;14925;51.026;13.752;2023-03-24T04:34:42;6.80;;;4.03;;
27489;SDS011;14925;51.026;13.752;2023-03-24T04:37:16;5.88;;;3.72;;
27489;SDS011;14925;51.026;13.752;2023-03-24T04:39:45;6.38;;;3.90;;
27489;SDS011;14925;51.026;13.752;2023-03-24T04:42:25;6.38;;;3.80;;
27489;SDS011;14925;51.026;13.752;2023-03-24T04:45:00;7.22;;;4.40;;
27489;SDS011;14925;51.026;13.752;2023-03-24T04:47:29;5.10;;;3.78;;
27489;SDS011;14925;51.026;13.752;2023-03-24T04:50:00;5.38;;;3.92;;
27489;SDS011;14925;51.026;13.752;2023-03-24T04:52:33;8.10;;;4.07;;
27489;SDS011;14925;51.026;13.752;2023-03-24T04:55:02;6.60;;;3.72;;
27489;SDS011;14925;51.026;13.752;2023-03-24T04:57:31;5.97;;;4.05;;
27489;SDS011;14925;51.026;13.752;2023-03-24T04:59:59;5.60;;;3.88;;
27489;SDS011;14925;51.026;13.752;2023-03-24T05:02:25;9.10;;;4.07;;
27489;SDS011;14925;51.026;13.752;2023-03-24T05:04:51;9.65;;;4.00;;
27489;SDS011;14925;51.026;13.752;2023-03-24T05:07:16;7.05;;;4.38;;
27489;SDS011;14925;51.026;13.752;2023-03-24T05:09:45;8.65;;;5.72;;
27489;SDS011;14925;51.026;13.752;2023-03-24T05:12:13;10.98;;;6.60;;
27489;SDS011;14925;51.026;13.752;2023-03-24T05:14:38;14.32;;;8.27;;
27489;SDS011;14925;51.026;13.752;2023-03-24T05:17:07;12.38;;;6.32;;
27489;SDS011;14925;51.026;13.752;2023-03-24T05:19:32;10.15;;;6.07;;
27489;SDS011;14925;51.026;13.752;2023-03-24T05:21:58;11.48;;;5.65;;
27489;SDS011;14925;51.026;13.752;2023-03-24T05:24:23;9.07;;;5.78;;
27489;SDS011;14925;51.026;13.752;2023-03-24T05:26:49;12.35;;;6.15;;
27489;SDS011;14925;51.026;13.752;2023-03-24T05:29:20;10.48;;;5.32;;
27489;SDS011;14925;51.026;13.752;2023-03-24T05:31:48;11.57;;;5.57;;
27489;SDS011;14925;51.026;13.752;2023-03-24T05:34:13;8.35;;;5.10;;
27489;SDS011;14925;51.026;13.752;2023-03-24T05:36:42;6.68;;;4.53;;
27489;SDS011;14925;51.026;13.752;2023-03-24T05:39:10;8.73;;;4.85;;
27489;SDS011;14925;51.026;13.752;2023-03-24T05:41:36;8.25;;;4.80;;
27489;SDS011;14925;51.026;13.752;2023-03-24T05:44:03;7.72;;;4.90;;
27489;SDS011;14925;51.026;13.752;2023-03-24T05:46:29;9.10;;;5.32;;
27489;SDS011;14925;51.026;13.752;2023-03-24T05:49:02;8.35;;;5.40;;
27489;SDS011;14925;51.026;13.752;2023-03-24T05:51:30;9.30;;;5.50;;
27489;SDS011;14925;51.026;13.752;2023-03-24T05:53:55;10.00;;;5.45;;
27489;SDS011;14925;51.026;13.752;2023-03-24T05:56:27;9.63;;;5.28;;
27489;SDS011;14925;51.026;13.752;2023-03-24T05:58:52;7.30;;;4.97;;
27489;SDS011;14925;51.026;13.752;2023-03-24T06:01:20;8.68;;;5.45;;
27489;SDS011;14925;51.026;13.752;2023-03-24T06:03:49;10.68;;;6.15;;
27489;SDS011;14925;51.026;13.752;2023-03-24T06:06:23;11.27;;;5.53;;
27489;SDS011;14925;51.026;13.752;2023-03-24T06:08:52;8.63;;;5.70;;
27489;SDS011;14925;51.026;13.752;2023-03-24T06:11:18;9.00;;;5.82;;
27489;SDS011;14925;51.026;13.752;2023-03-24T06:13:47;9.80;;;6.03;;
27489;SDS011;14925;51.026;13.752;2023-03-24T06:16:13;10.20;;;5.35;;
27489;SDS011;14925;51.026;13.752;2023-03-24T06:18:38;11.38;;;5.82;;
27489;SDS011;14925;51.026;13.752;2023-03-24T06:21:09;11.10;;;5.90;;
27489;SDS011;14925;51.026;13.752;2023-03-24T06:23:34;11.75;;;6.88;;
27489;SDS011;14925;51.026;13.752;2023-03-24T06:26:06;11.57;;;6.18;;
27489;SDS011;14925;51.026;13.752;2023-03-24T06:28:38;10.23;;;5.90;;
27489;SDS011;14925;51.026;13.752;2023-03-24T06:31:08;15.30;;;6.68;;
27489;SDS011;14925;51.026;13.752;2023-03-24T06:33:39;12.23;;;6.80;;
27489;SDS011;14925;51.026;13.752;2023-03-24T06:36:07;16.83;;;6.78;;
27489;SDS011;14925;51.026;13.752;2023-03-24T06:38:37;13.88;;;7.20;;
27489;SDS011;14925;51.026;13.752;2023-03-24T06:41:06;14.80;;;8.07;;
27489;SDS011;14925;51.026;13.752;2023-03-24T06:43:31;14.45;;;8.23;;
27489;SDS011;14925;51.026;13.752;2023-03-24T06:45:57;11.98;;;7.68;;
27489;SDS011;14925;51.026;13.752;2023-03-24T06:48:23;14.10;;;8.30;;
27489;SDS011;14925;51.026;13.752;2023-03-24T06:50:48;11.80;;;7.45;;
27489;SDS011;14925;51.026;13.752;2023-03-24T06:53:13;10.75;;;5.63;;
27489;SDS011;14925;51.026;13.752;2023-03-24T06:55:42;7.60;;;5.53;;
27489;SDS011;14925;51.026;13.752;2023-03-24T06:58:08;4.97;;;3.53;;
27489;SDS011;14925;51.026;13.752;2023-03-24T07:00:34;7.65;;;2.95;;
27489;SDS011;14925;51.026;13.752;2023-03-24T07:03:00;5.68;;;2.83;;
27489;SDS011;14925;51.026;13.752;2023-03-24T07:05:26;3.30;;;2.28;;
27489;SDS011;14925;51.026;13.752;2023-03-24T07:07:52;4.38;;;2.38;;
27489;SDS011;14925;51.026;13.752;2023-03-24T07:10:17;3.25;;;2.25;;
27489;SDS011;14925;51.026;13.752;2023-03-24T07:12:46;5.38;;;2.20;;
27489;SDS011;14925;51.026;13.752;2023-03-24T07:15:12;2.75;;;1.92;;
27489;SDS011;14925;51.026;13.752;2023-03-24T07:17:40;2.63;;;1.80;;
27489;SDS011;14925;51.026;13.752;2023-03-24T07:20:09;2.50;;;2.13;;
27489;SDS011;14925;51.026;13.752;2023-03-24T07:22:34;3.15;;;2.10;;
27489;SDS011;14925;51.026;13.752;2023-03-24T07:25:06;3.88;;;2.10;;
27489;SDS011;14925;51.026;13.752;2023-03-24T07:27:32;3.33;;;2.03;;
27489;SDS011;14925;51.026;13.752;2023-03-24T07:30:02;5.18;;;2.50;;
27489;SDS011;14925;51.026;13.752;2023-03-24T07:32:31;4.07;;;2.00;;
27489;SDS011;14925;51.026;13.752;2023-03-24T07:35:01;6.47;;;2.08;;
27489;SDS011;14925;51.026;13.752;2023-03-24T07:37:31;3.40;;;1.95;;
27489;SDS011;14925;51.026;13.752;2023-03-24T07:39:56;4.18;;;2.20;;
27489;SDS011;14925;51.026;13.752;2023-03-24T07:42:25;4.97;;;2.22;;
27489;SDS011;14925;51.026;13.752;2023-03-24T07:44:51;3.17;;;2.30;;
27489;SDS011;14925;51.026;13.752;2023-03-24T07:47:16;4.05;;;2.22;;
27489;SDS011;14925;51.026;13.752;2023-03-24T07:49:42;3.47;;;2.13;;
27489;SDS011;14925;51.026;13.752;2023-03-24T07:52:07;4.10;;;1.85;;
27489;SDS011;14925;51.026;13.752;2023-03-24T07:54:36;3.78;;;2.10;;
27489;SDS011;14925;51.026;13.752;2023-03-24T07:57:01;3.28;;;2.30;;
27489;SDS011;14925;51.026;13.752;2023-03-24T07:59:26;3.80;;;2.42;;
27489;SDS011;14925;51.026;13.752;2023-03-24T08:01:52;4.82;;;2.10;;
27489;SDS011;14925;51.026;13.752;2023-03-24T08:04:17;3.95;;;2.28;;
27489;SDS011;14925;51.026;13.752;2023-03-24T08:06:46;2.65;;;2.08;;
27489;SDS011;14925;51.026;13.752;2023-03-24T08:09:17;3.22;;;1.98;;
27489;SDS011;14925;51.026;13.752;2023-03-24T08:11:42;2.80;;;2.00;;
27489;SDS011;14925;51.026;13.752;2023-03-24T08:14:08;3.45;;;2.20;;
27489;SDS011;14925;51.026;13.752;2023-03-24T08:16:36;3.22;;;2.30;;
27489;SDS011;14925;51.026;13.752;2023-03-24T08:19:04;4.75;;;2.20;;
27489;SDS011;14925;51.026;13.752;2023-03-24T08:21:32;3.22;;;2.00;;
27489;SDS011;14925;51.026;13.752;2023-03-24T08:23:58;2.80;;;2.00;;
27489;SDS011;14925;51.026;13.752;2023-03-24T08:26:23;4.63;;;2.63;;
27489;SDS011;14925;51.026;13.752;2023-03-24T08:28:52;5.22;;;2.47;;
27489;SDS011;14925;51.026;13.752;2023-03-24T08:31:20;1.90;;;1.70;;
27489;SDS011;14925;51.026;13.752;2023-03-24T08:33:45;2.92;;;2.20;;
27489;SDS011;14925;51.026;13.752;2023-03-24T08:36:11;2.88;;;2.20;;
27489;SDS011;14925;51.026;13.752;2023-03-24T08:38:36;4.55;;;2.20;;
27489;SDS011;14925;51.026;13.752;2023-03-24T08:41:03;3.88;;;2.33;;
27489;SDS011;14925;51.026;13.752;2023-03-24T08:43:31;2.92;;;2.28;;
27489;SDS011;14925;51.026;13.752;2023-03-24T08:46:00;2.42;;;1.88;;
27489;SDS011;14925;51.026;13.752;2023-03-24T08:48:30;4.55;;;2.22;;
27489;SDS011;14925;51.026;13.752;2023-03-24T08:51:08;5.30;;;2.47;;
27489;SDS011;14925;51.026;13.752;2023-03-24T08:53:37;3.35;;;2.00;;
27489;SDS011;14925;51.026;13.752;2023-03-24T08:56:03;4.50;;;2.30;;
27489;SDS011;14925;51.026;13.752;2023-03-24T08:58:34;2.95;;;2.20;;
27489;SDS011;14925;51.026;13.752;2023-03-24T09:01:00;3.40;;;2.40;;
27489;SDS011;14925;51.026;13.752;2023-03-24T09:03:29;4.05;;;2.42;;
27489;SDS011;14925;51.026;13.752;2023-03-24T09:05:56;3.42;;;2.20;;
27489;SDS011;14925;51.026;13.752;2023-03-24T09:08:22;4.43;;;2.28;;
27489;SDS011;14925;51.026;13.752;2023-03-24T09:10:51;4.03;;;2.50;;
27489;SDS011;14925;51.026;13.752;2023-03-24T09:13:19;2.60;;;2.10;;
27489;SDS011;14925;51.026;13.752;2023-03-24T09:15:45;3.50;;;2.13;;
27489;SDS011;14925;51.026;13.752;2023-03-24T09:18:16;5.55;;;2.22;;
27489;SDS011;14925;51.026;13.752;2023-03-24T09:20:45;3.78;;;2.10;;
27489;SDS011;14925;51.026;13.752;2023-03-24T09:23:11;3.45;;;2.22;;
27489;SDS011;14925;51.026;13.752;2023-03-24T09:25:39;3.40;;;2.00;;
27489;SDS011;14925;51.026;13.752;2023-03-24T09:28:12;8.77;;;3.15;;
27489;SDS011;14925;51.026;13.752;2023-03-24T09:30:41;7.30;;;2.35;;
27489;SDS011;14925;51.026;13.752;2023-03-24T09:33:07;5.07;;;2.30;;
27489;SDS011;14925;51.026;13.752;2023-03-24T09:35:32;6.10;;;2.35;;
27489;SDS011;14925;51.026;13.752;2023-03-24T09:38:01;6.53;;;2.47;;
27489;SDS011;14925;51.026;13.752;2023-03-24T09:40:27;4.50;;;2.50;;
27489;SDS011;14925;51.026;13.752;2023-03-24T09:43:15;3.25;;;2.40;;
27489;SDS011;14925;51.026;13.752;2023-03-24T09:45:56;4.50;;;2.42;;
27489;SDS011;14925;51.026;13.752;2023-03-24T09:51:23;3.05;;;2.28;;
27489;SDS011;14925;51.026;13.752;2023-03-24T09:53:56;3.03;;;2.00;;
27489;SDS011;14925;51.026;13.752;2023-03-24T09:56:34;2.88;;;1.77;;
27489;SDS011;14925;51.026;13.752;2023-03-24T09:59:02;4.47;;;2.50;;
27489;SDS011;14925;51.026;13.752;2023-03-24T10:01:47;5.50;;;2.50;;
27489;SDS011;14925;51.026;13.752;2023-03-24T10:04:17;3.58;;;2.00;;
27489;SDS011;14925;51.026;13.752;2023-03-24T10:06:45;3.38;;;2.05;;
27489;SDS011;14925;51.026;13.752;2023-03-24T10:14:55;5.07;;;1.92;;
27489;SDS011;14925;51.026;13.752;2023-03-24T10:26:21;6.85;;;1.35;;
27489;SDS011;14925;51.026;13.752;2023-03-24T10:34:41;3.08;;;1.10;;
27489;SDS011;14925;51.026;13.752;2023-03-24T10:37:10;1.30;;;0.98;;
27489;SDS011;14925;51.026;13.752;2023-03-24T10:39:37;2.00;;;0.90;;
27489;SDS011;14925;51.026;13.752;2023-03-24T10:42:03;1.40;;;0.70;;
27489;SDS011;14925;51.026;13.752;2023-03-24T10:44:30;2.13;;;0.75;;
27489;SDS011;14925;51.026;13.752;2023-03-24T10:46:57;2.72;;;0.80;;
27489;SDS011;14925;51.026;13.752;2023-03-24T10:49:31;1.10;;;0.70;;
27489;SDS011;14925;51.026;13.752;2023-03-24T10:52:01;0.88;;;0.70;;
27489;SDS011;14925;51.026;13.752;2023-03-24T10:54:30;2.75;;;0.88;;
27489;SDS011;14925;51.026;13.752;2023-03-24T10:57:02;1.00;;;0.60;;
27489;SDS011;14925;51.026;13.752;2023-03-24T10:59:30;3.00;;;0.80;;
27489;SDS011;14925;51.026;13.752;2023-03-24T11:01:58;1.08;;;0.77;;
27489;SDS011;14925;51.026;13.752;2023-03-24T11:04:26;1.70;;;0.80;;
27489;SDS011;14925;51.026;13.752;2023-03-24T11:07:00;0.80;;;0.60;;
27489;SDS011;14925;51.026;13.752;2023-03-24T11:09:41;0.95;;;0.70;;
27489;SDS011;14925;51.026;13.752;2023-03-24T11:12:19;2.15;;;0.47;;
27489;SDS011;14925;51.026;13.752;2023-03-24T11:14:47;0.55;;;0.52;;
27489;SDS011;14925;51.026;13.752;2023-03-24T11:17:13;3.13;;;0.50;;
27489;SDS011;14925;51.026;13.752;2023-03-24T11:19:57;2.05;;;0.57;;
27489;SDS011;14925;51.026;13.752;2023-03-24T11:22:23;2.92;;;0.80;;
27489;SDS011;14925;51.026;13.752;2023-03-24T11:24:50;1.48;;;0.60;;
27489;SDS011;14925;51.026;13.752;2023-03-24T11:27:16;0.75;;;0.55;;
27489;SDS011;14925;51.026;13.752;2023-03-24T11:29:43;0.82;;;0.60;;
27489;SDS011;14925;51.026;13.752;2023-03-24T11:32:12;1.38;;;0.80;;
27489;SDS011;14925;51.026;13.752;2023-03-24T11:37:13;1.08;;;0.77;;
27489;SDS011;14925;51.026;13.752;2023-03-24T11:45:44;1.60;;;0.90;;
27489;SDS011;14925;51.026;13.752;2023-03-24T11:51:04;2.25;;;0.70;;
27489;SDS011;14925;51.026;13.752;2023-03-24T11:53:36;2.03;;;0.80;;
27489;SDS011;14925;51.026;13.752;2023-03-24T11:56:08;0.95;;;0.68;;
27489;SDS011;14925;51.026;13.752;2023-03-24T11:58:45;1.55;;;0.77;;
27489;SDS011;14925;51.026;13.752;2023-03-24T12:03:49;1.55;;;0.88;;
27489;SDS011;14925;51.026;13.752;2023-03-24T12:09:35;2.25;;;0.75;;
27489;SDS011;14925;51.026;13.752;2023-03-24T12:17:25;1.67;;;0.70;;
27489;SDS011;14925;51.026;13.752;2023-03-24T12:23:06;2.15;;;0.88;;
27489;SDS011;14925;51.026;13.752;2023-03-24T12:28:26;2.35;;;0.70;;
27489;SDS011;14925;51.026;13.752;2023-03-24T12:39:28;0.93;;;0.60;;
27489;SDS011;14925;51.026;13.752;2023-03-24T12:42:03;1.23;;;0.70;;
27489;SDS011;14925;51.026;13.752;2023-03-24T12:56:25;1.05;;;0.60;;
27489;SDS011;14925;51.026;13.752;2023-03-24T12:58:56;1.02;;;0.70;;
27489;SDS011;14925;51.026;13.752;2023-03-24T13:07:10;3.58;;;0.80;;
27489;SDS011;14925;51.026;13.752;2023-03-24T13:15:37;2.58;;;0.88;;
27489;SDS011;14925;51.026;13.752;2023-03-24T13:28:32;4.93;;;0.98;;
27489;SDS011;14925;51.026;13.752;2023-03-24T13:31:02;1.20;;;0.90;;
27489;SDS011;14925;51.026;13.752;2023-03-24T13:33:30;0.98;;;0.70;;
27489;SDS011;14925;51.026;13.752;2023-03-24T13:38:58;2.55;;;0.82;;
27489;SDS011;14925;51.026;13.752;2023-03-24T13:41:30;1.58;;;0.80;;
27489;SDS011;14925;51.026;13.752;2023-03-24T13:43:58;1.83;;;0.88;;
27489;SDS011;14925;51.026;13.752;2023-03-24T13:46:37;1.07;;;0.60;;
27489;SDS011;14925;51.026;13.752;2023-03-24T13:49:07;1.98;;;0.60;;
27489;SDS011;14925;51.026;13.752;2023-03-24T13:51:36;2.45;;;0.80;;
27489;SDS011;14925;51.026;13.752;2023-03-24T13:56:53;1.33;;;0.75;;
27489;SDS011;14925;51.026;13.752;2023-03-24T14:02:43;1.48;;;0.70;;
27489;SDS011;14925;51.026;13.752;2023-03-24T14:08:28;3.80;;;0.98;;
27489;SDS011;14925;51.026;13.752;2023-03-24T14:14:05;8.80;;;1.50;;
27489;SDS011;14925;51.026;13.752;2023-03-24T14:19:35;4.47;;;1.30;;
27489;SDS011;14925;51.026;13.752;2023-03-24T14:24:36;6.22;;;1.40;;
27489;SDS011;14925;51.026;13.752;2023-03-24T14:30:20;3.63;;;1.38;;
27489;SDS011;14925;51.026;13.752;2023-03-24T14:33:01;5.38;;;1.65;;
27489;SDS011;14925;51.026;13.752;2023-03-24T14:35:40;4.07;;;1.52;;
27489;SDS011;14925;51.026;13.752;2023-03-24T14:40:49;5.57;;;1.70;;
27489;SDS011;14925;51.026;13.752;2023-03-24T14:49:03;3.92;;;1.33;;
27489;SDS011;14925;51.026;13.752;2023-03-24T14:54:30;4.05;;;1.50;;
27489;SDS011;14925;51.026;13.752;2023-03-24T14:57:05;5.30;;;1.40;;
27489;SDS011;14925;51.026;13.752;2023-03-24T14:59:46;2.38;;;1.25;;
27489;SDS011;14925;51.026;13.752;2023-03-24T15:02:35;4.22;;;1.38;;
27489;SDS011;14925;51.026;13.752;2023-03-24T15:05:18;4.97;;;1.50;;
27489;SDS011;14925;51.026;13.752;2023-03-24T15:07:58;3.17;;;1.40;;
27489;SDS011;14925;51.026;13.752;2023-03-24T15:10:35;2.55;;;1.38;;
27489;SDS011;14925;51.026;13.752;2023-03-24T15:13:19;2.85;;;1.30;;
27489;SDS011;14925;51.026;13.752;2023-03-24T15:15:57;2.70;;;1.40;;
27489;SDS011;14925;51.026;13.752;2023-03-24T15:18:32;4.20;;;1.98;;
27489;SDS011;14925;51.026;13.752;2023-03-24T15:20:58;5.72;;;1.70;;
27489;SDS011;14925;51.026;13.752;2023-03-24T15:23:28;5.47;;;1.88;;
27489;SDS011;14925;51.026;13.752;2023-03-24T15:25:56;7.13;;;2.10;;
27489;SDS011;14925;51.026;13.752;2023-03-24T15:28:28;4.70;;;2.15;;
27489;SDS011;14925;51.026;13.752;2023-03-24T15:30:57;6.50;;;2.22;;
27489;SDS011;14925;51.026;13.752;2023-03-24T15:33:26;6.13;;;1.98;;
27489;SDS011;14925;51.026;13.752;2023-03-24T15:35:59;7.68;;;2.60;;
27489;SDS011;14925;51.026;13.752;2023-03-24T15:38:27;5.25;;;2.17;;
27489;SDS011;14925;51.026;13.752;2023-03-24T15:40:57;6.18;;;1.58;;
27489;SDS011;14925;51.026;13.752;2023-03-24T15:43:24;3.05;;;1.50;;
27489;SDS011;14925;51.026;13.752;2023-03-24T15:45:53;3.13;;;1.48;;
27489;SDS011;14925;51.026;13.752;2023-03-24T15:48:20;3.45;;;1.70;;
27489;SDS011;14925;51.026;13.752;2023-03-24T15:51:04;3.38;;;1.13;;
27489;SDS011;14925;51.026;13.752;2023-03-24T15:56:01;3.72;;;2.10;;
27489;SDS011;14925;51.026;13.752;2023-03-24T15:58:29;5.30;;;2.20;;
27489;SDS011;14925;51.026;13.752;2023-03-24T16:00:57;5.68;;;2.10;;
27489;SDS011;14925;51.026;13.752;2023-03-24T16:03:30;3.28;;;1.55;;
27489;SDS011;14925;51.026;13.752;2023-03-24T16:05:57;3.72;;;1.40;;
27489;SDS011;14925;51.026;13.752;2023-03-24T16:11:08;5.07;;;1.75;;
27489;SDS011;14925;51.026;13.752;2023-03-24T16:13:42;7.63;;;1.80;;
27489;SDS011;14925;51.026;13.752;2023-03-24T16:19:03;4.10;;;2.42;;
27489;SDS011;14925;51.026;13.752;2023-03-24T16:21:29;5.13;;;1.67;;
27489;SDS011;14925;51.026;13.752;2023-03-24T16:23:55;2.83;;;1.55;;
27489;SDS011;14925;51.026;13.752;2023-03-24T16:26:28;3.17;;;1.95;;
27489;SDS011;14925;51.026;13.752;2023-03-24T16:29:12;7.70;;;2.10;;
27489;SDS011;14925;51.026;13.752;2023-03-24T16:31:44;2.55;;;1.73;;
27489;SDS011;14925;51.026;13.752;2023-03-24T16:34:22;4.28;;;1.60;;
27489;SDS011;14925;51.026;13.752;2023-03-24T16:36:53;6.50;;;1.88;;
27489;SDS011;14925;51.026;13.752;2023-03-24T16:39:25;4.18;;;1.35;;
27489;SDS011;14925;51.026;13.752;2023-03-24T16:41:54;1.80;;;1.25;;
27489;SDS011;14925;51.026;13.752;2023-03-24T16:44:20;3.40;;;1.67;;
27489;SDS011;14925;51.026;13.752;2023-03-24T16:46:47;2.67;;;1.55;;
27489;SDS011;14925;51.026;13.752;2023-03-24T16:49:16;2.33;;;1.50;;
27489;SDS011;14925;51.026;13.752;2023-03-24T16:51:42;6.78;;;2.30;;
27489;SDS011;14925;51.026;13.752;2023-03-24T16:54:09;3.38;;;2.10;;
27489;SDS011;14925;51.026;13.752;2023-03-24T16:56:37;4.75;;;2.10;;
27489;SDS011;14925;51.026;13.752;2023-03-24T16:59:03;3.83;;;1.63;;
27489;SDS011;14925;51.026;13.752;2023-03-24T17:04:23;3.05;;;1.20;;
27489;SDS011;14925;51.026;13.752;2023-03-24T17:06:51;5.13;;;1.55;;
27489;SDS011;14925;51.026;13.752;2023-03-24T17:12:02;4.03;;;1.52;;
27489;SDS011;14925;51.026;13.752;2023-03-24T17:14:28;1.77;;;1.10;;
27489;SDS011;14925;51.026;13.752;2023-03-24T17:16:59;3.55;;;1.17;;
27489;SDS011;14925;51.026;13.752;2023-03-24T17:19:25;6.32;;;1.30;;
27489;SDS011;14925;51.026;13.752;2023-03-24T17:21:55;1.85;;;1.10;;
27489;SDS011;14925;51.026;13.752;2023-03-24T17:24:23;2.67;;;1.40;;
27489;SDS011;14925;51.026;13.752;2023-03-24T17:26:49;4.57;;;1.30;;
27489;SDS011;14925;51.026;13.752;2023-03-24T17:29:15;3.05;;;1.20;;
27489;SDS011;14925;51.026;13.752;2023-03-24T17:31:42;1.85;;;1.05;;
27489;SDS011;14925;51.026;13.752;2023-03-24T17:34:17;2.80;;;1.10;;
27489;SDS011;14925;51.026;13.752;2023-03-24T17:36:44;1.67;;;1.00;;
27489;SDS011;14925;51.026;13.752;2023-03-24T17:39:13;2.45;;;1.40;;
27489;SDS011;14925;51.026;13.752;2023-03-24T17:41:48;4.72;;;1.20;;
27489;SDS011;14925;51.026;13.752;2023-03-24T17:44:16;2.17;;;1.35;;
27489;SDS011;14925;51.026;13.752;2023-03-24T17:46:42;1.40;;;1.10;;
27489;SDS011;14925;51.026;13.752;2023-03-24T17:49:10;3.70;;;1.27;;
27489;SDS011;14925;51.026;13.752;2023-03-24T17:51:35;2.38;;;1.30;;
27489;SDS011;14925;51.026;13.752;2023-03-24T17:54:01;3.17;;;1.38;;
27489;SDS011;14925;51.026;13.752;2023-03-24T17:56:26;3.13;;;1.40;;
27489;SDS011;14925;51.026;13.752;2023-03-24T17:58:54;4.00;;;1.30;;
27489;SDS011;14925;51.026;13.752;2023-03-24T18:01:22;3.63;;;1.50;;